Time;durP1;ratioP1;P1;durP2;ratioP2;P2;SDS_P1;SDS_P2;PMS_P1;PMS_P2;Temp;Humidity;BMP_temperature;BMP_pressure;BME280_temperature;BME280_humidity;BME280_pressure;Samples;Min_cycle;Max_cycle;Signal;HPM_P1;HPM_P2
2021/08/21 00:00:09;;;;;;;10.58;5.90;;;;;;;19.20;82.16;100983.17;1853530;77;21114;-61
2021/08/21 00:02:41;;;;;;;11.60;5.87;;;;;;;19.20;82.44;100974.70;1885974;76;21072;-60
2021/08/21 00:05:10;;;;;;;13.90;6.53;;;;;;;19.26;82.88;100989.42;1853608;77;21109;-60
2021/08/21 00:07:39;;;;;;;11.97;5.50;;;;;;;19.29;83.02;100978.05;1885772;76;21024;-61
2021/08/21 00:10:12;;;;;;;8.75;4.70;;;;;;;19.33;83.10;100984.48;1853626;77;21033;-60
2021/08/21 00:12:40;;;;;;;;;;;;;;;19.36;83.12;100978.92;1888508;76;21044;-61
2021/08/21 00:15:12;;;;;;;8.48;4.62;;;;;;;19.38;83.14;100974.33;1885782;76;20117;-61
2021/08/21 00:17:41;;;;;;;11.48;4.60;;;;;;;19.43;83.39;100982.86;1853634;77;21486;-60
2021/08/21 00:20:11;;;;;;;10.98;4.92;;;;;;;19.46;83.46;100984.83;1885773;76;21614;-60
2021/08/21 00:22:40;;;;;;;12.65;5.35;;;;;;;19.51;83.46;100982.30;1853910;77;21012;-60
2021/08/21 00:25:10;;;;;;;11.22;5.55;;;;;;;19.51;83.53;100987.64;1891016;76;21491;-61
2021/08/21 00:27:38;;;;;;;11.48;6.15;;;;;;;19.46;83.52;100986.66;1865617;77;21060;-60
2021/08/21 00:30:08;;;;;;;12.58;5.78;;;;;;;19.42;83.54;100990.48;1895338;76;21056;-61
2021/08/21 00:32:38;;;;;;;15.48;7.37;;;;;;;19.35;83.64;100987.88;1895332;76;21024;-60
2021/08/21 00:35:08;;;;;;;17.12;7.05;;;;;;;19.29;83.68;100991.39;1865716;77;21055;-61
2021/08/21 00:37:37;;;;;;;15.30;6.58;;;;;;;19.24;83.89;100988.19;1895248;76;21118;-61
2021/08/21 00:40:08;;;;;;;16.87;6.10;;;;;;;19.17;84.04;100988.25;1895347;76;21032;-61
2021/08/21 00:42:37;;;;;;;14.38;6.83;;;;;;;19.10;84.01;100984.31;1865721;77;21035;-60
2021/08/21 00:45:07;;;;;;;13.58;7.33;;;;;;;19.03;84.11;100986.58;1895362;76;21055;-61
2021/08/21 00:47:36;;;;;;;13.70;7.40;;;;;;;18.99;84.46;100987.73;1895384;76;21118;-60
2021/08/21 00:50:05;;;;;;;12.05;6.78;;;;;;;18.97;84.64;100986.15;1865512;77;21043;-61
2021/08/21 00:52:35;;;;;;;15.72;6.87;;;;;;;18.89;84.51;100984.88;1895308;76;21032;-61
2021/08/21 00:55:04;;;;;;;19.05;6.90;;;;;;;18.84;84.52;100986.16;1895481;76;21047;-61
2021/08/21 00:57:33;;;;;;;14.90;6.92;;;;;;;18.79;84.63;100981.09;1865756;77;21031;-61
2021/08/21 01:00:04;;;;;;;14.95;7.15;;;;;;;18.77;84.83;100976.84;1895374;76;21111;-61
2021/08/21 01:02:33;;;;;;;15.95;7.50;;;;;;;18.73;84.85;100984.20;1895236;76;21095;-61
2021/08/21 01:05:04;;;;;;;14.47;6.87;;;;;;;18.70;84.96;100984.41;1865619;77;21542;-60
2021/08/21 01:07:37;;;;;;;15.60;8.13;;;;;;;18.65;84.97;100989.23;1895647;76;21087;-61
2021/08/21 01:10:10;;;;;;;14.03;7.37;;;;;;;18.60;85.00;100989.53;1895276;76;21336;-60
2021/08/21 01:12:42;;;;;;;17.95;8.53;;;;;;;18.55;85.16;100985.47;1865589;76;21204;-60
2021/08/21 01:15:11;;;;;;;19.12;7.80;;;;;;;18.49;85.23;100994.26;1895310;76;21052;-60
2021/08/21 01:17:42;;;;;;;17.40;9.23;;;;;;;18.44;85.32;100992.41;1895446;75;21182;-60
2021/08/21 01:20:13;;;;;;;17.00;8.63;;;;;;;18.39;85.43;100998.53;1895381;75;21147;-61
2021/08/21 01:22:43;;;;;;;16.60;8.68;;;;;;;18.36;85.57;101005.39;1865724;77;21160;-61
2021/08/21 01:25:22;;;;;;;22.20;14.30;;;;;;;18.33;85.74;101004.25;1889775;75;21115;-62
2021/08/21 01:27:51;;;;;;;22.62;12.47;;;;;;;18.29;85.87;100996.09;1882413;76;21172;-61
2021/08/21 01:30:38;;;;;;;19.35;9.80;;;;;;;18.26;85.96;100998.95;1885793;76;21055;-61
2021/08/21 01:33:18;;;;;;;17.50;9.73;;;;;;;18.25;86.15;101002.59;1852405;77;21161;-60
2021/08/21 01:35:48;;;;;;;22.85;12.03;;;;;;;18.25;86.20;101006.59;1885793;76;21138;-61
2021/08/21 01:38:17;;;;;;;18.05;10.72;;;;;;;18.24;86.21;101007.08;1887108;75;21083;-60
2021/08/21 01:41:03;;;;;;;16.10;10.32;;;;;;;18.22;86.22;101005.45;1850416;77;21136;-60
2021/08/21 01:43:35;;;;;;;22.55;11.38;;;;;;;18.19;86.27;101008.34;1874405;76;21067;-61
2021/08/21 01:46:04;;;;;;;20.62;11.38;;;;;;;18.20;86.46;101012.70;1887076;76;21532;-60
2021/08/21 01:48:34;;;;;;;20.35;10.93;;;;;;;18.18;86.62;101009.29;1885706;75;21581;-60
2021/08/21 01:51:03;;;;;;;21.93;10.93;;;;;;;18.14;86.65;101011.30;1887049;76;21047;-60
2021/08/21 01:53:31;;;;;;;19.48;10.58;;;;;;;18.10;86.69;101019.98;1885883;76;21141;-61
2021/08/21 01:56:01;;;;;;;19.95;10.98;;;;;;;18.07;86.77;101024.17;1887105;76;21137;-61
2021/08/21 01:58:47;;;;;;;18.82;10.18;;;;;;;18.04;86.88;101025.72;1885684;76;21134;-61
2021/08/21 02:01:27;;;;;;;32.90;11.83;;;;;;;18.01;86.92;101025.91;1886809;75;21497;-60
2021/08/21 02:04:17;;;;;;;28.35;15.43;;;;;;;17.99;87.00;101027.83;1884534;76;21048;-61
2021/08/21 02:06:47;;;;;;;22.82;12.20;;;;;;;17.98;87.17;101030.59;1887046;76;21101;-60
2021/08/21 02:09:18;;;;;;;22.30;12.23;;;;;;;17.98;87.23;101023.44;1885794;75;21526;-61
2021/08/21 02:11:48;;;;;;;21.27;11.10;;;;;;;17.97;87.48;101023.08;1887105;76;21035;-60
2021/08/21 02:14:20;;;;;;;21.87;12.10;;;;;;;17.95;87.63;101019.67;1885986;76;21052;-61
2021/08/21 02:16:51;;;;;;;21.55;11.95;;;;;;;17.92;87.60;101018.04;1887033;76;21055;-61
2021/08/21 02:19:22;;;;;;;24.20;11.12;;;;;;;17.89;87.56;101028.04;1885818;76;21162;-60
2021/08/21 02:22:07;;;;;;;18.48;8.58;;;;;;;17.84;87.63;101026.14;1886653;76;21087;-61
2021/08/21 02:24:37;;;;;;;17.77;9.00;;;;;;;17.81;87.66;101036.98;1885878;76;21532;-61
2021/08/21 02:27:07;;;;;;;21.80;9.65;;;;;;;17.79;87.71;101030.42;1844727;77;21154;-60
2021/08/21 02:29:36;;;;;;;18.90;9.20;;;;;;;17.77;87.74;101030.16;1876404;76;21569;-60
2021/08/21 02:32:07;;;;;;;20.55;9.05;;;;;;;17.77;87.83;101035.48;1876153;76;21110;-61
2021/08/21 02:34:35;;;;;;;20.35;9.75;;;;;;;17.79;87.84;101030.91;1876278;76;21049;-61
2021/08/21 02:37:06;;;;;;;21.57;10.40;;;;;;;17.78;87.85;101034.52;1876337;76;21076;-61
2021/08/21 02:39:37;;;;;;;17.87;9.38;;;;;;;17.77;87.91;101037.66;1874477;76;21064;-61
2021/08/21 02:42:05;;;;;;;25.08;9.78;;;;;;;17.79;87.94;101045.56;1876262;76;21122;-61
2021/08/21 02:44:34;;;;;;;18.37;8.55;;;;;;;17.80;87.91;101040.14;1876276;76;21060;-62
2021/08/21 02:47:03;;;;;;;20.37;8.43;;;;;;;17.82;87.87;101037.37;1876276;76;21119;-61
2021/08/21 02:49:32;;;;;;;15.48;8.40;;;;;;;17.83;87.83;101037.25;1876302;76;21053;-61
2021/08/21 02:52:01;;;;;;;18.80;9.03;;;;;;;17.87;87.87;101036.61;1876254;76;21142;-61
2021/08/21 02:54:30;;;;;;;18.73;7.62;;;;;;;17.89;87.93;101047.56;1876393;76;21523;-61
2021/08/21 02:57:00;;;;;;;19.05;9.48;;;;;;;17.92;87.93;101051.83;1876272;76;21563;-60
2021/08/21 02:59:30;;;;;;;18.10;8.03;;;;;;;17.96;87.91;101049.33;1876288;76;21900;-60
2021/08/21 03:02:00;;;;;;;16.57;7.67;;;;;;;18.03;87.92;101052.47;1876265;76;21064;-60
2021/08/21 03:04:30;;;;;;;13.83;7.45;;;;;;;18.13;87.82;101054.42;1876289;76;21146;-60
2021/08/21 03:06:59;;;;;;;22.22;8.40;;;;;;;18.25;87.97;101055.91;1876345;76;21067;-60
2021/08/21 03:09:35;;;;;;;16.12;7.50;;;;;;;18.36;88.29;101058.70;1863976;76;21184;-61
2021/08/21 03:12:04;;;;;;;11.38;7.35;;;;;;;18.48;88.61;101060.56;1876213;76;21735;-60
2021/08/21 03:14:35;;;;;;;12.65;6.85;;;;;;;18.60;88.89;101058.02;1875840;76;21112;-60
2021/08/21 03:17:09;;;;;;;13.95;7.65;;;;;;;18.67;89.00;101053.98;1876440;76;21068;-60
2021/08/21 03:19:34;;;;;;;17.77;9.23;;;;;;;18.76;89.05;101060.02;1876183;76;21103;-61
2021/08/21 03:22:04;;;;;;;15.72;8.30;;;;;;;18.84;88.96;101052.85;1876315;76;21092;-60
2021/08/21 03:24:34;;;;;;;14.43;6.75;;;;;;;18.93;88.77;101055.38;1876163;76;21045;-60
2021/08/21 03:27:03;;;;;;;14.63;6.72;;;;;;;18.97;88.46;101052.86;1876826;76;21037;-60
2021/08/21 03:29:32;;;;;;;19.40;7.50;;;;;;;19.05;88.26;101059.84;1885759;76;21084;-60
2021/08/21 03:32:02;;;;;;;13.38;7.62;;;;;;;19.08;87.82;101059.63;1885841;76;21080;-60
2021/08/21 03:34:32;;;;;;;15.10;7.65;;;;;;;19.14;87.38;101060.53;1885887;76;21044;-60
2021/08/21 03:37:02;;;;;;;21.00;9.23;;;;;;;19.21;87.08;101067.15;1885717;76;21197;-60
2021/08/21 03:39:31;;;;;;;12.03;6.28;;;;;;;19.37;87.16;101067.42;1885678;76;21475;-60
2021/08/21 03:42:00;;;;;;;14.47;7.53;;;;;;;19.51;86.93;101071.27;1853763;77;21142;-60
2021/08/21 03:44:29;;;;;;;14.60;8.28;;;;;;;19.59;86.25;101076.94;1885910;76;21621;-60
2021/08/21 03:46:59;;;;;;;14.55;8.08;;;;;;;19.67;85.91;101083.91;1853614;77;21121;-60
2021/08/21 03:49:27;;;;;;;17.52;7.45;;;;;;;19.81;85.40;101084.29;1885792;75;21154;-60
2021/08/21 03:51:56;;;;;;;13.90;8.15;;;;;;;19.92;84.53;101080.84;1853775;77;21105;-60
2021/08/21 03:54:27;;;;;;;15.50;8.05;;;;;;;20.08;84.09;101079.70;1885783;76;21076;-60
2021/08/21 03:56:56;;;;;;;18.42;7.92;;;;;;;20.30;83.59;101082.48;1853716;77;21525;-60
2021/08/21 03:59:26;;;;;;;15.68;6.87;;;;;;;20.53;83.02;101085.28;1885762;76;21049;-60
2021/08/21 04:01:56;;;;;;;9.68;5.67;;;;;;;20.75;82.41;101081.36;1853475;77;21491;-60
2021/08/21 04:04:29;;;;;;;8.93;5.62;;;;;;;20.98;81.79;101080.91;1885632;76;21076;-60
2021/08/21 04:06:59;;;;;;;11.22;5.40;;;;;;;21.21;81.13;101079.12;1885888;75;21084;-60
2021/08/21 04:09:30;;;;;;;12.43;5.78;;;;;;;21.45;79.68;101084.89;1885546;76;21145;-60
2021/08/21 04:12:00;;;;;;;11.83;5.90;;;;;;;21.74;78.94;101085.20;1885755;76;21593;-61
2021/08/21 04:14:30;;;;;;;13.53;5.17;;;;;;;22.13;78.40;101082.08;1885356;76;21083;-60
2021/08/21 04:16:59;;;;;;;11.45;5.30;;;;;;;22.54;77.39;101088.06;1885781;76;21084;-60
2021/08/21 04:19:28;;;;;;;7.85;4.58;;;;;;;22.77;76.22;101081.23;1885714;76;21153;-60
2021/08/21 04:21:58;;;;;;;10.03;4.35;;;;;;;22.58;75.63;101083.29;1853564;77;21082;-60
2021/08/21 04:24:29;;;;;;;10.45;4.33;;;;;;;22.34;75.32;101087.05;1878173;76;21444;-60
2021/08/21 04:26:59;;;;;;;17.73;4.95;;;;;;;22.31;75.21;101089.97;1884362;76;21079;-60
2021/08/21 04:29:28;;;;;;;9.73;4.80;;;;;;;22.58;74.71;101084.63;1878434;76;21150;-61
2021/08/21 04:31:57;;;;;;;11.57;4.35;;;;;;;22.46;73.93;101085.66;1876349;76;21060;-61
2021/08/21 04:34:26;;;;;;;16.00;5.40;;;;;;;22.30;74.21;101085.61;1876195;76;21491;-61
2021/08/21 04:36:56;;;;;;;14.75;5.08;;;;;;;22.42;74.05;101084.22;1876270;76;21076;-61
2021/08/21 04:39:26;;;;;;;9.85;4.50;;;;;;;22.42;74.08;101086.90;1876081;76;21510;-61
2021/08/21 04:41:56;;;;;;;7.62;4.20;;;;;;;22.57;74.04;101090.97;1876355;76;21523;-61
2021/08/21 04:44:26;;;;;;;8.50;4.55;;;;;;;22.80;72.93;101090.38;1876241;76;21146;-60
2021/08/21 04:46:55;;;;;;;14.40;4.20;;;;;;;22.88;73.15;101092.39;1876352;76;21060;-60
2021/08/21 04:49:24;;;;;;;7.90;3.55;;;;;;;23.19;72.84;101096.00;1876374;76;21639;-60
2021/08/21 04:51:54;;;;;;;8.85;4.17;;;;;;;23.58;72.48;101092.14;1876114;76;21530;-61
2021/08/21 04:54:24;;;;;;;7.90;3.95;;;;;;;23.98;72.02;101090.46;1876365;76;21036;-59
2021/08/21 04:56:52;;;;;;;11.45;3.77;;;;;;;24.26;70.00;101096.36;1876213;76;21080;-59
2021/08/21 04:59:23;;;;;;;9.70;4.25;;;;;;;24.43;68.47;101091.27;1874878;76;21049;-59
2021/08/21 05:01:53;;;;;;;7.08;3.72;;;;;;;24.59;68.51;101094.27;1875962;76;21088;-60
2021/08/21 05:04:22;;;;;;;5.08;3.08;;;;;;;24.81;67.64;101090.93;1876269;76;21052;-62
2021/08/21 05:06:52;;;;;;;8.63;3.62;;;;;;;25.03;67.24;101093.28;1876186;76;21602;-61
2021/08/21 05:09:21;;;;;;;7.12;3.42;;;;;;;25.25;65.45;101098.02;1876381;76;21049;-61
2021/08/21 05:11:51;;;;;;;7.47;3.17;;;;;;;25.35;65.32;101089.89;1876089;76;21085;-60
2021/08/21 05:14:20;;;;;;;5.53;2.72;;;;;;;25.41;64.71;101092.82;1876178;76;21077;-60
2021/08/21 05:16:50;;;;;;;6.87;3.00;;;;;;;25.60;64.20;101093.73;1876087;76;21531;-61
2021/08/21 05:19:41;;;;;;;5.28;2.90;;;;;;;25.81;63.76;101092.98;1876252;76;21133;-60
2021/08/21 05:24:40;;;;;;;9.18;4.30;;;;;;;26.19;62.79;101101.87;1843503;76;21076;-60
2021/08/21 05:27:10;;;;;;;7.55;3.42;;;;;;;26.26;59.98;101099.90;1885672;76;21487;-60
2021/08/21 05:29:40;;;;;;;8.05;3.75;;;;;;;26.38;60.03;101098.67;1885614;75;21131;-60
2021/08/21 05:32:09;;;;;;;6.70;3.77;;;;;;;26.50;58.02;101098.77;1885896;76;21092;-60
2021/08/21 05:34:40;;;;;;;7.10;3.25;;;;;;;26.59;57.50;101099.18;1885671;76;21075;-60
2021/08/21 05:37:09;;;;;;;8.35;3.60;;;;;;;26.70;56.96;101099.98;1885653;76;21044;-60
2021/08/21 05:39:38;;;;;;;7.20;4.05;;;;;;;26.84;57.09;101106.19;1885637;76;21562;-60
2021/08/21 05:42:07;;;;;;;9.38;3.87;;;;;;;27.07;56.92;101098.39;1885620;75;21547;-60
2021/08/21 05:44:36;;;;;;;10.03;3.90;;;;;;;27.47;56.74;101096.96;1885674;76;21564;-60
2021/08/21 05:47:05;;;;;;;5.90;3.67;;;;;;;27.71;54.91;101092.16;1885685;76;21048;-60
2021/08/21 05:49:33;;;;;;;6.80;3.45;;;;;;;27.79;54.03;101097.25;1885658;76;21564;-61
2021/08/21 05:52:03;;;;;;;5.50;3.10;;;;;;;28.00;53.98;101098.17;1885653;76;21548;-59
2021/08/21 05:54:32;;;;;;;9.23;3.37;;;;;;;28.08;53.89;101097.70;1885505;76;21064;-60
2021/08/21 05:57:03;;;;;;;8.33;4.10;;;;;;;28.39;53.08;101095.72;1885498;76;21079;-60
2021/08/21 05:59:34;;;;;;;4.97;3.15;;;;;;;28.67;52.50;101098.13;1884786;76;21529;-60
2021/08/21 06:02:02;;;;;;;5.95;3.70;;;;;;;29.01;52.20;101097.93;1853703;77;21028;-60
2021/08/21 06:04:31;;;;;;;4.62;3.10;;;;;;;29.35;51.36;101110.41;1885882;76;21102;-60
2021/08/21 06:07:00;;;;;;;7.70;3.58;;;;;;;29.29;50.20;101111.60;1853675;77;21105;-61
2021/08/21 06:09:29;;;;;;;7.83;3.40;;;;;;;29.07;49.63;101108.59;1885792;76;21110;-61
2021/08/21 06:11:57;;;;;;;6.20;3.65;;;;;;;29.22;50.14;101108.23;1853690;77;21180;-59
2021/08/21 06:14:26;;;;;;;5.70;3.75;;;;;;;29.54;49.81;101106.95;1885781;76;21128;-60
2021/08/21 06:16:54;;;;;;;6.65;3.70;;;;;;;29.51;48.51;101102.73;1853721;77;21040;-59
2021/08/21 06:19:23;;;;;;;9.55;4.17;;;;;;;29.78;48.34;101106.86;1885898;76;21065;-60
2021/08/21 06:21:52;;;;;;;8.70;4.72;;;;;;;29.49;47.39;101103.39;1853689;77;21134;-60
2021/08/21 06:24:20;;;;;;;7.72;3.70;;;;;;;29.45;46.38;101107.48;1885863;75;21060;-59
2021/08/21 06:26:49;;;;;;;6.70;3.90;;;;;;;29.54;46.35;101114.58;1853880;77;21117;-60
2021/08/21 06:29:18;;;;;;;8.88;4.47;;;;;;;29.32;46.31;101113.46;1885085;76;21113;-59
2021/08/21 06:31:47;;;;;;;7.78;4.08;;;;;;;29.54;45.86;101109.67;1876502;76;21084;-60
2021/08/21 06:34:15;;;;;;;9.30;3.75;;;;;;;29.72;45.99;101102.64;1876169;76;21179;-60
2021/08/21 06:36:44;;;;;;;7.35;4.05;;;;;;;29.94;46.20;101111.37;1876298;76;21076;-59
2021/08/21 06:39:13;;;;;;;6.90;4.37;;;;;;;30.07;44.79;101111.31;1876416;76;21495;-60
2021/08/21 06:41:42;;;;;;;8.43;4.28;;;;;;;29.93;44.37;101113.74;1876533;76;21052;-59
2021/08/21 06:44:10;;;;;;;6.72;3.40;;;;;;;30.01;44.23;101124.57;1876296;76;21068;-59
2021/08/21 06:46:43;;;;;;;6.22;4.33;;;;;;;30.07;44.74;101116.74;1876355;76;21074;-60
2021/08/21 06:49:12;;;;;;;9.25;4.72;;;;;;;30.19;44.62;101108.02;1876302;76;21561;-60
2021/08/21 06:51:41;;;;;;;9.48;4.47;;;;;;;30.03;43.84;101115.73;1876269;76;21076;-59
2021/08/21 06:54:09;;;;;;;9.63;4.97;;;;;;;29.82;45.00;101123.16;1876252;76;21469;-60
2021/08/21 06:56:38;;;;;;;7.47;4.35;;;;;;;29.96;44.63;101107.13;1876296;76;21048;-59
2021/08/21 06:59:07;;;;;;;6.85;4.25;;;;;;;29.88;45.06;101120.73;1876167;76;21080;-60
2021/08/21 07:01:37;;;;;;;6.33;3.77;;;;;;;29.86;44.54;101119.55;1876276;76;21236;-60
2021/08/21 07:04:06;;;;;;;6.90;4.40;;;;;;;29.82;45.31;101110.08;1875482;76;21123;-59
2021/08/21 07:06:35;;;;;;;9.65;4.33;;;;;;;29.95;44.73;101114.41;1876268;76;21492;-59
2021/08/21 07:09:04;;;;;;;6.25;3.87;;;;;;;30.12;44.79;101118.38;1876274;76;21503;-59
2021/08/21 07:11:33;;;;;;;7.53;4.03;;;;;;;30.51;45.32;101125.64;1876317;76;21073;-60
2021/08/21 07:14:01;;;;;;;7.15;4.12;;;;;;;30.64;43.27;101121.79;1876349;76;21016;-59
2021/08/21 07:16:30;;;;;;;5.95;3.50;;;;;;;30.50;43.38;101121.22;1876341;76;21068;-60
2021/08/21 07:19:00;;;;;;;6.53;4.15;;;;;;;30.48;43.27;101121.92;1876404;76;21119;-59
2021/08/21 07:21:29;;;;;;;8.30;4.35;;;;;;;30.44;43.01;101119.24;1876284;76;21052;-59
2021/08/21 07:23:58;;;;;;;11.35;4.30;;;;;;;30.48;43.65;101126.00;1876232;76;21487;-60
2021/08/21 07:26:26;;;;;;;9.68;4.22;;;;;;;30.71;42.93;101121.39;1876325;76;21161;-60
2021/08/21 07:28:55;;;;;;;6.45;4.00;;;;;;;30.90;42.07;101111.87;1876276;76;21107;-59
2021/08/21 07:31:24;;;;;;;5.83;3.90;;;;;;;31.02;41.61;101115.00;1876346;76;21166;-60
2021/08/21 07:33:52;;;;;;;6.30;4.35;;;;;;;31.20;42.37;101109.20;1876381;76;21057;-59
2021/08/21 07:36:21;;;;;;;9.30;4.70;;;;;;;31.46;41.24;101114.17;1876339;76;21040;-59
2021/08/21 07:38:52;;;;;;;7.08;4.25;;;;;;;31.40;40.41;101121.74;1876183;76;21102;-59
2021/08/21 07:41:20;;;;;;;8.43;3.92;;;;;;;31.46;41.37;101118.25;1876272;76;21017;-59
2021/08/21 07:43:49;;;;;;;7.03;4.10;;;;;;;31.93;41.41;101113.45;1876281;76;21479;-59
2021/08/21 07:46:18;;;;;;;6.83;4.30;;;;;;;32.15;39.73;101123.03;1876284;76;21005;-59
2021/08/21 07:48:46;;;;;;;11.08;4.80;;;;;;;32.23;39.11;101116.95;1876498;76;21538;-59
2021/08/21 07:51:15;;;;;;;8.13;4.50;;;;;;;32.31;39.20;101122.28;1876253;76;21044;-60
2021/08/21 07:53:44;;;;;;;8.03;4.72;;;;;;;31.50;40.42;101118.27;1876267;76;21036;-60
2021/08/21 07:56:12;;;;;;;7.33;4.03;;;;;;;30.74;41.73;101124.25;1876225;76;21130;-59
2021/08/21 07:58:42;;;;;;;8.90;4.33;;;;;;;30.59;42.03;101120.12;1876357;76;21110;-59
2021/08/21 08:01:11;;;;;;;7.50;4.15;;;;;;;31.22;41.38;101125.34;1876462;76;21181;-60
2021/08/21 08:03:39;;;;;;;5.87;3.70;;;;;;;31.57;40.57;101125.14;1876209;76;21158;-61
2021/08/21 08:06:08;;;;;;;7.00;4.15;;;;;;;31.67;40.94;101109.86;1876342;76;21041;-60
2021/08/21 08:11:26;;;;;;;5.50;4.10;;;;;;;30.28;42.17;101119.64;1816365;78;21156;-59
2021/08/21 08:13:55;;;;;;;8.28;4.62;;;;;;;30.27;42.72;101120.68;1832261;78;21037;-59
2021/08/21 08:16:23;;;;;;;6.97;4.12;;;;;;;30.85;42.37;101118.89;1833849;78;21089;-59
2021/08/21 08:18:52;;;;;;;8.10;4.30;;;;;;;31.07;41.34;101115.30;1832142;78;21496;-59
2021/08/21 08:21:22;;;;;;;6.83;3.92;;;;;;;31.16;41.49;101118.25;1833912;78;21179;-60
2021/08/21 08:23:52;;;;;;;6.55;4.00;;;;;;;31.57;40.86;101121.05;1832231;77;21151;-59
2021/08/21 08:26:21;;;;;;;6.92;3.80;;;;;;;31.66;40.61;101120.45;1833974;78;21045;-59
2021/08/21 08:28:49;;;;;;;8.13;4.70;;;;;;;32.16;41.01;101119.28;1832058;78;21108;-60
2021/08/21 08:31:18;;;;;;;9.83;4.60;;;;;;;32.05;39.00;101117.38;1833851;78;21048;-60
2021/08/21 08:33:47;;;;;;;8.13;4.40;;;;;;;31.89;39.64;101124.38;1832260;78;21041;-59
2021/08/21 08:36:16;;;;;;;7.28;4.55;;;;;;;31.99;38.81;101114.56;1833876;78;21665;-59
2021/08/21 08:38:45;;;;;;;8.13;4.75;;;;;;;32.06;39.48;101125.05;1832343;77;21073;-59
2021/08/21 08:41:16;;;;;;;7.72;3.47;;;;;;;32.34;39.17;101127.02;1833797;78;21225;-60
2021/08/21 08:43:45;;;;;;;7.80;4.53;;;;;;;32.66;39.03;101122.41;1832028;77;21053;-60
2021/08/21 08:46:15;;;;;;;9.90;4.15;;;;;;;32.37;38.98;101118.44;1833892;77;21150;-60
2021/08/21 08:48:44;;;;;;;7.35;3.90;;;;;;;32.29;39.41;101125.70;1831503;78;21049;-60
2021/08/21 08:51:13;;;;;;;8.08;4.30;;;;;;;32.37;40.01;101126.11;1833501;77;21633;-60
2021/08/21 08:53:42;;;;;;;6.33;4.22;;;;;;;32.57;39.46;101125.44;1798812;80;21548;-61
2021/08/21 08:56:13;;;;;;;8.08;4.08;;;;;;;32.50;38.44;101122.67;1839960;77;21542;-64
2021/08/21 08:58:41;;;;;;;7.72;3.52;;;;;;;32.62;39.01;101111.58;1832214;77;21049;-65
2021/08/21 09:01:10;;;;;;;6.42;3.95;;;;;;;32.54;38.41;101121.23;1839307;77;21069;-64
2021/08/21 09:03:39;;;;;;;7.35;4.42;;;;;;;32.48;38.43;101124.72;1865366;77;21053;-63
2021/08/21 09:06:10;;;;;;;6.90;4.10;;;;;;;32.56;38.53;101112.34;1855909;77;21123;-64
2021/08/21 09:08:40;;;;;;;5.90;3.73;;;;;;;32.28;38.44;101126.75;1831839;78;21519;-64
2021/08/21 09:11:24;;;;;;;6.25;4.25;;;;;;;32.32;38.58;101128.57;1838660;77;21511;-65
2021/08/21 09:13:54;;;;;;;5.85;4.35;;;;;;;32.63;38.46;101120.09;1864977;76;21041;-64
2021/08/21 09:16:29;;;;;;;8.38;4.03;;;;;;;32.57;38.25;101119.98;1858176;76;21143;-60
2021/08/21 09:19:07;;;;;;;6.65;3.92;;;;;;;32.82;38.63;101118.56;1865150;76;21127;-60
2021/08/21 09:21:36;;;;;;;6.00;3.67;;;;;;;32.69;38.64;101128.84;1862705;76;21559;-60
2021/08/21 09:24:24;;;;;;;6.35;4.12;;;;;;;32.68;38.01;101125.80;1865088;77;21060;-66
2021/08/21 09:26:53;;;;;;;8.78;4.50;;;;;;;32.38;38.13;101125.06;1842283;77;21033;-65
2021/08/21 09:29:29;;;;;;;7.15;4.20;;;;;;;32.20;38.22;101124.66;1800690;78;21045;-66
2021/08/21 09:32:08;;;;;;;5.28;3.83;;;;;;;32.11;38.44;101124.80;1800728;78;21045;-60
2021/08/21 09:34:38;;;;;;;5.22;3.05;;;;;;;32.05;38.93;101122.82;1832497;78;21047;-59
2021/08/21 09:37:09;;;;;;;7.25;3.92;;;;;;;31.94;38.65;101124.13;1798862;78;21090;-62
2021/08/21 09:39:41;;;;;;;7.70;3.85;;;;;;;31.91;38.79;101120.45;1832292;78;21111;-65
2021/08/21 09:42:11;;;;;;;8.53;3.77;;;;;;;31.63;39.34;101112.64;1799109;78;21049;-65
2021/08/21 09:44:45;;;;;;;6.37;4.00;;;;;;;31.80;39.62;101121.44;1832469;78;21147;-65
2021/08/21 09:47:23;;;;;;;6.15;3.55;;;;;;;32.16;39.01;101126.09;1820342;78;21127;-63
2021/08/21 09:49:50;;;;;;;9.48;3.98;;;;;;;32.26;38.52;101123.88;1864724;77;21081;-64
2021/08/21 09:52:20;;;;;;;8.83;4.53;;;;;;;32.39;38.57;101122.67;1840884;77;21590;-64
2021/08/21 09:55:14;;;;;;;6.67;4.70;;;;;;;32.49;38.32;101128.63;1832190;78;21045;-65
2021/08/21 09:57:41;;;;;;;6.83;3.83;;;;;;;32.34;38.24;101122.93;1860271;77;21594;-65
2021/08/21 10:00:11;;;;;;;6.70;3.65;;;;;;;32.27;38.92;101118.23;1862953;77;21125;-63
2021/08/21 10:02:48;;;;;;;;;;;;;;;32.06;38.66;101123.16;1840307;76;21083;-60
2021/08/21 10:05:13;;;;;;;6.80;3.90;;;;;;;31.89;39.23;101117.08;1831782;77;20118;-61
2021/08/21 10:07:46;;;;;;;7.10;3.52;;;;;;;31.62;38.95;101117.78;1859036;77;21127;-61
2021/08/21 10:10:16;;;;;;;6.00;4.10;;;;;;;31.53;39.49;101128.75;1864924;77;21147;-61
2021/08/21 10:12:47;;;;;;;6.35;3.95;;;;;;;31.61;39.61;101132.41;1835606;77;21107;-68
2021/08/21 10:15:16;;;;;;;7.25;3.83;;;;;;;31.55;39.68;101123.12;1832300;78;21132;-68
2021/08/21 10:17:46;;;;;;;6.42;3.72;;;;;;;31.64;40.19;101126.07;1861556;76;21123;-62
2021/08/21 10:20:15;;;;;;;7.80;3.80;;;;;;;31.29;39.18;101141.25;1862994;77;21490;-61
2021/08/21 10:22:45;;;;;;;6.72;3.37;;;;;;;30.79;40.51;101131.34;1865305;77;21569;-61
2021/08/21 10:25:15;;;;;;;7.30;4.20;;;;;;;30.81;40.86;101144.76;1863013;76;21029;-62
2021/08/21 10:27:55;;;;;;;6.70;3.90;;;;;;;30.66;41.28;101139.28;1865198;77;21535;-62
2021/08/21 10:30:26;;;;;;;8.40;4.85;;;;;;;30.62;41.71;101123.85;1862135;77;21042;-61
2021/08/21 10:33:03;;;;;;;9.78;4.42;;;;;;;30.43;41.79;101131.12;1860829;77;21042;-62
2021/08/21 10:35:44;;;;;;;6.95;3.60;;;;;;;30.38;42.43;101132.52;1865095;77;21021;-62
2021/08/21 10:38:34;;;;;;;7.78;3.90;;;;;;;30.58;42.53;101132.88;1862556;77;21041;-60
2021/08/21 10:41:13;;;;;;;6.85;3.70;;;;;;;30.66;42.53;101142.00;1864515;77;21164;-61
2021/08/21 10:43:47;;;;;;;8.60;4.47;;;;;;;30.72;42.31;101137.18;1862850;77;21104;-60
2021/08/21 10:46:33;;;;;;;7.42;3.98;;;;;;;30.57;41.35;101140.69;1856063;77;21493;-60
2021/08/21 10:49:07;;;;;;;6.53;3.50;;;;;;;30.50;41.83;101141.59;1833678;77;21143;-60
2021/08/21 10:51:38;;;;;;;5.65;3.30;;;;;;;30.49;42.37;101145.33;1851282;77;21112;-60
2021/08/21 10:54:29;;;;;;;8.60;4.00;;;;;;;30.27;41.83;101140.19;1833955;78;21058;-60
2021/08/21 10:57:00;;;;;;;7.60;3.40;;;;;;;30.07;42.39;101142.02;1851718;77;21499;-60
2021/08/21 10:59:47;;;;;;;6.15;3.87;;;;;;;30.01;43.26;101135.44;1863058;77;21022;-60
2021/08/21 11:02:31;;;;;;;15.72;4.90;;;;;;;29.90;43.32;101134.48;1843216;77;21037;-60
2021/08/21 11:05:01;;;;;;;7.28;3.60;;;;;;;29.90;44.04;101131.77;1833774;78;21102;-61
2021/08/21 11:07:35;;;;;;;7.28;4.08;;;;;;;29.84;43.83;101144.66;1858627;76;21412;-61
2021/08/21 11:10:21;;;;;;;6.95;4.08;;;;;;;29.81;43.42;101139.61;1862951;77;21034;-60
2021/08/21 11:12:53;;;;;;;5.80;3.33;;;;;;;29.54;44.10;101147.12;1822694;77;21070;-61
2021/08/21 11:15:23;;;;;;;6.55;3.55;;;;;;;29.36;44.59;101138.37;1816192;78;21118;-61
2021/08/21 11:17:52;;;;;;;8.03;3.75;;;;;;;29.17;44.80;101135.02;1816364;78;21087;-60
2021/08/21 11:20:26;;;;;;;8.35;3.58;;;;;;;28.96;46.44;101125.22;1816380;79;21633;-60
2021/08/21 11:23:16;;;;;;;5.60;3.10;;;;;;;28.96;46.35;101135.55;1816284;79;21485;-60
2021/08/21 11:25:46;;;;;;;14.60;4.40;;;;;;;28.91;46.09;101132.48;1817707;76;21047;-64
2021/08/21 11:28:23;;;;;;;8.30;3.87;;;;;;;28.72;45.95;101140.95;1841905;76;21105;-64
2021/08/21 11:31:11;;;;;;;6.58;3.17;;;;;;;28.58;46.93;101134.36;1842179;76;21567;-64
2021/08/21 11:33:43;;;;;;;9.50;3.60;;;;;;;28.67;47.02;101120.64;1816364;79;21105;-65
2021/08/21 11:36:12;;;;;;;7.58;4.42;;;;;;;28.79;46.90;101129.30;1824037;78;21046;-62
2021/08/21 11:38:42;;;;;;;6.90;3.37;;;;;;;28.75;47.41;101136.05;1841779;78;21105;-61
2021/08/21 11:41:14;;;;;;;9.23;3.52;;;;;;;28.53;47.07;101140.78;1839207;78;21073;-61
2021/08/21 11:43:44;;;;;;;6.80;3.22;;;;;;;28.27;47.42;101137.67;1816447;79;21172;-60